createdAt,value
2022-11-23T00:04:12.840Z,7.03
2022-11-23T00:09:14.434Z,7.05
2022-11-23T00:14:15.920Z,7.15
2022-11-23T00:19:17.279Z,7.17
2022-11-23T00:24:18.739Z,7.20
2022-11-23T00:29:20.193Z,7.22
2022-11-23T00:34:21.689Z,7.31
2022-11-23T00:39:23.353Z,7.33
2022-11-23T00:44:24.905Z,7.32
2022-11-23T00:49:26.288Z,7.36
2022-11-23T00:54:27.695Z,7.29
2022-11-23T00:59:29.924Z,7.37
2022-11-23T01:04:31.653Z,7.35
2022-11-23T01:09:33.228Z,7.36
2022-11-23T01:14:35.214Z,7.37
2022-11-23T01:19:36.633Z,7.40
2022-11-23T01:24:38.080Z,7.43
2022-11-23T01:29:39.443Z,7.48
2022-11-23T01:34:40.870Z,7.43
2022-11-23T01:39:42.273Z,7.48
2022-11-23T01:44:44.124Z,7.44
2022-11-23T01:49:51.483Z,7.38
2022-11-23T01:54:56.011Z,7.51
2022-11-23T01:59:57.974Z,7.43
2022-11-23T02:05:01.495Z,7.42
2022-11-23T02:10:03.278Z,7.40
2022-11-23T02:15:05.128Z,7.40
2022-11-23T02:20:11.226Z,7.40
2022-11-23T02:25:22.955Z,7.40
2022-11-23T02:30:25.383Z,7.38
2022-11-23T02:35:26.854Z,7.38
2022-11-23T02:40:33.871Z,7.39
2022-11-23T02:45:50.102Z,7.34
2022-11-23T02:50:52.051Z,7.33
2022-11-23T02:55:53.495Z,7.26
2022-11-23T03:00:54.876Z,7.25
2022-11-23T03:05:56.277Z,7.18
2022-11-23T03:10:57.681Z,7.15
2022-11-23T03:15:59.387Z,7.13
2022-11-23T03:21:05.587Z,7.19
2022-11-23T03:26:12.539Z,7.16
2022-11-23T03:31:14.612Z,7.18
2022-11-23T03:36:16.057Z,7.25
2022-11-23T03:41:17.582Z,7.30
2022-11-23T03:46:18.981Z,7.34
2022-11-23T03:51:20.432Z,7.33
2022-11-23T03:56:21.863Z,7.32
2022-11-23T04:01:23.309Z,7.30
2022-11-23T04:06:24.961Z,7.32
2022-11-23T04:11:26.351Z,7.39
2022-11-23T04:16:27.726Z,7.40
2022-11-23T04:21:29.222Z,7.39
2022-11-23T04:26:30.636Z,7.24
2022-11-23T04:31:32.671Z,7.11
2022-11-23T04:36:34.118Z,7.07
2022-11-23T04:41:35.515Z,7.17
2022-11-23T04:46:36.878Z,7.15
2022-11-23T04:51:38.677Z,7.11
2022-11-23T04:56:40.040Z,7.07
2022-11-23T05:01:41.599Z,7.10
2022-11-23T05:06:43.199Z,7.05
2022-11-23T05:11:44.735Z,7.09
2022-11-23T05:16:46.211Z,7.14
2022-11-23T05:21:47.596Z,7.18
2022-11-23T05:26:53.365Z,7.14
2022-11-23T05:31:57.549Z,7.20
2022-11-23T05:36:58.920Z,7.18
2022-11-23T05:42:00.290Z,7.24
2022-11-23T05:47:01.681Z,7.20
2022-11-23T05:52:03.518Z,7.24
2022-11-23T05:57:04.976Z,7.24
2022-11-23T06:02:06.522Z,7.23
2022-11-23T06:07:07.976Z,7.18
2022-11-23T06:12:09.479Z,7.21
2022-11-23T06:17:10.990Z,7.19
2022-11-23T06:22:12.590Z,7.20
2022-11-23T06:27:18.335Z,7.20
2022-11-23T06:32:19.947Z,7.20
2022-11-23T06:37:21.359Z,7.22
2022-11-23T06:42:38.474Z,7.21
2022-11-23T06:47:40.234Z,7.16
2022-11-23T06:52:41.662Z,7.13
2022-11-23T06:57:43.229Z,7.07
2022-11-23T07:02:50.661Z,7.08
2022-11-23T07:07:52.089Z,7.08
2022-11-23T07:12:53.537Z,7.05
2022-11-23T07:17:55.126Z,7.05
2022-11-23T07:23:01.567Z,6.99
2022-11-23T07:28:04.907Z,7.02
2022-11-23T07:33:09.217Z,6.96
2022-11-23T07:38:10.803Z,6.90
2022-11-23T07:43:12.243Z,6.89
2022-11-23T07:48:13.717Z,6.88
2022-11-23T07:53:15.108Z,6.85
2022-11-23T07:58:16.556Z,6.86
2022-11-23T08:03:33.309Z,6.84
2022-11-23T08:08:35.307Z,6.80
2022-11-23T08:13:39.794Z,6.83
2022-11-23T08:18:41.329Z,6.89
2022-11-23T08:23:42.719Z,6.97
2022-11-23T08:28:44.811Z,7.05
2022-11-23T08:33:46.268Z,7.08
2022-11-23T08:38:51.280Z,7.14
2022-11-23T08:43:52.729Z,7.15
2022-11-23T08:48:54.146Z,7.24
2022-11-23T08:53:55.712Z,7.31
2022-11-23T08:58:57.118Z,7.41
2022-11-23T09:03:58.501Z,7.68
2022-11-23T09:09:02.404Z,7.88
2022-11-23T09:14:03.994Z,7.86
2022-11-23T09:19:07.253Z,7.90
2022-11-23T09:24:12.433Z,7.97
2022-11-23T09:29:14.380Z,7.82
2022-11-23T09:34:15.867Z,7.76
2022-11-23T09:39:18.561Z,7.72
2022-11-23T09:44:45.192Z,7.81
2022-11-23T09:50:04.927Z,7.79
2022-11-23T09:55:29.670Z,7.82
2022-11-23T10:00:38.886Z,7.85
2022-11-23T10:05:40.460Z,7.90
2022-11-23T10:10:49.032Z,7.98
2022-11-23T10:16:13.992Z,8.08
2022-11-23T10:21:52.414Z,8.07
2022-11-23T10:26:53.986Z,8.18
2022-11-23T10:31:57.436Z,8.30
2022-11-23T10:36:59.250Z,8.32
2022-11-23T10:42:07.304Z,8.52
2022-11-23T10:47:08.812Z,8.43
2022-11-23T10:52:29.844Z,8.74
2022-11-23T10:57:33.348Z,9.20
2022-11-23T11:02:40.632Z,9.29
2022-11-23T11:07:42.192Z,9.44
2022-11-23T11:12:51.444Z,9.53
2022-11-23T11:17:57.751Z,9.94
2022-11-23T11:23:17.284Z,9.82
2022-11-23T11:28:25.490Z,9.95
2022-11-23T11:33:53.149Z,9.78
2022-11-23T11:39:17.346Z,9.82
2022-11-23T11:44:22.895Z,9.63
2022-11-23T11:49:31.741Z,9.36
2022-11-23T11:54:44.144Z,9.32
2022-11-23T11:59:49.982Z,9.27
2022-11-23T12:05:16.287Z,9.52
2022-11-23T12:10:24.701Z,9.29
2022-11-23T12:15:48.949Z,9.48
2022-11-23T12:21:08.294Z,9.56
2022-11-23T12:26:21.547Z,9.50
2022-11-23T12:31:44.463Z,9.69
2022-11-23T12:37:19.373Z,9.63
2022-11-23T12:42:38.789Z,9.44
2022-11-23T12:47:49.628Z,9.48
2022-11-23T12:53:01.492Z,9.49
2022-11-23T12:58:10.358Z,9.42
2022-11-23T13:03:49.550Z,9.47
2022-11-23T13:09:18.079Z,9.37
2022-11-23T13:14:50.623Z,9.30
2022-11-23T13:20:08.465Z,9.21
2022-11-23T13:25:09.871Z,9.17
2022-11-23T13:30:27.338Z,9.19
2022-11-23T13:35:33.362Z,8.99
2022-11-23T13:40:36.519Z,9.03
2022-11-23T13:45:38.178Z,9.05
2022-11-23T13:50:56.085Z,9.16
2022-11-23T13:56:16.381Z,9.02
2022-11-23T14:01:55.369Z,9.08
2022-11-23T14:07:01.564Z,9.09
2022-11-23T14:12:12.110Z,9.11
2022-11-23T14:17:36.690Z,8.88
2022-11-23T14:23:07.123Z,8.55
2022-11-23T14:28:29.493Z,8.10
2022-11-23T14:33:39.457Z,7.82
2022-11-23T14:39:08.844Z,7.62
2022-11-23T14:44:14.283Z,7.52
2022-11-23T14:49:15.831Z,7.46
2022-11-23T14:54:17.381Z,7.41
2022-11-23T14:59:28.648Z,7.41
2022-11-23T15:04:38.507Z,7.34
2022-11-23T15:10:22.019Z,7.29
2022-11-23T15:15:34.014Z,7.22
2022-11-23T15:20:45.340Z,7.20
2022-11-23T15:25:59.174Z,7.14
2022-11-23T15:31:00.634Z,7.11
2022-11-23T15:36:03.883Z,7.08
2022-11-23T15:41:05.604Z,7.07
2022-11-23T15:46:12.738Z,7.02
2022-11-23T15:51:47.213Z,7.01
2022-11-23T15:56:52.275Z,7.00
2022-11-23T16:01:54.866Z,6.96
2022-11-23T16:06:58.341Z,6.96
2022-11-23T16:11:59.975Z,6.98
2022-11-23T16:17:16.925Z,6.96
2022-11-23T16:22:38.817Z,6.96
2022-11-23T16:27:40.301Z,6.97
2022-11-23T16:32:41.749Z,7.01
2022-11-23T16:37:43.515Z,7.02
2022-11-23T16:42:45.770Z,6.99
2022-11-23T16:47:56.040Z,7.00
2022-11-23T16:53:00.832Z,6.99
2022-11-23T16:58:03.603Z,7.00
2022-11-23T17:03:14.913Z,7.02
2022-11-23T17:08:23.000Z,7.06
2022-11-23T17:13:28.584Z,7.11
2022-11-23T17:18:30.079Z,7.08
2022-11-23T17:23:31.506Z,7.12
2022-11-23T17:28:35.078Z,7.14
2022-11-23T17:33:38.735Z,7.16
2022-11-23T17:38:44.422Z,7.18
2022-11-23T17:43:47.380Z,7.23
2022-11-23T17:48:54.086Z,7.19
2022-11-23T17:53:55.498Z,7.22
2022-11-23T17:58:57.600Z,7.21
2022-11-23T18:04:01.471Z,7.22
2022-11-23T18:09:04.618Z,7.24
2022-11-23T18:14:07.429Z,7.30
2022-11-23T18:19:08.897Z,7.31
2022-11-23T18:24:10.444Z,7.27
2022-11-23T18:29:16.902Z,7.25
2022-11-23T18:34:18.799Z,7.27
2022-11-23T18:39:20.333Z,7.32
2022-11-23T18:44:21.928Z,7.29
2022-11-23T18:49:23.842Z,7.24
2022-11-23T18:54:25.502Z,7.20
2022-11-23T18:59:50.413Z,7.14
2022-11-23T19:04:49.893Z,7.03
2022-11-23T19:09:51.471Z,6.96
2022-11-23T19:14:54.068Z,6.87
2022-11-23T19:19:55.490Z,6.78
2022-11-23T19:24:56.908Z,6.75
2022-11-23T19:29:58.355Z,6.69
2022-11-23T19:34:59.886Z,6.66
2022-11-23T19:40:01.285Z,6.62
2022-11-23T19:45:06.564Z,6.63
2022-11-23T19:50:08.926Z,6.56
2022-11-23T19:55:10.706Z,6.53
2022-11-23T20:00:13.234Z,6.55
2022-11-23T20:05:15.505Z,6.53
2022-11-23T20:10:17.751Z,6.53
2022-11-23T20:15:19.418Z,6.44
2022-11-23T20:20:21.872Z,6.43
2022-11-23T20:25:23.468Z,6.37
2022-11-23T20:30:31.641Z,6.32
2022-11-23T20:35:33.138Z,6.24
2022-11-23T20:40:35.700Z,6.18
2022-11-23T20:45:37.366Z,6.12
2022-11-23T20:50:39.315Z,6.15
2022-11-23T20:55:40.806Z,6.16
2022-11-23T21:00:45.044Z,6.17
2022-11-23T21:05:50.876Z,6.24
2022-11-23T21:11:11.072Z,6.19
2022-11-23T21:16:12.456Z,6.27
2022-11-23T21:21:14.274Z,6.37
2022-11-23T21:26:16.033Z,6.46
2022-11-23T21:31:17.633Z,6.58
2022-11-23T21:36:19.772Z,6.66
2022-11-23T21:41:21.251Z,6.79
2022-11-23T21:46:24.715Z,6.68
2022-11-23T21:51:30.067Z,6.94
2022-11-23T21:56:31.785Z,6.86
2022-11-23T22:01:35.040Z,6.71
2022-11-23T22:06:37.754Z,6.73
2022-11-23T22:11:41.230Z,6.71
2022-11-23T22:16:47.243Z,6.74
2022-11-23T22:21:48.817Z,6.69
2022-11-23T22:26:50.412Z,6.67
2022-11-23T22:31:51.886Z,6.83
2022-11-23T22:36:54.172Z,6.62
2022-11-23T22:41:55.820Z,6.66
2022-11-23T22:46:57.449Z,6.66
2022-11-23T22:52:00.035Z,6.59
2022-11-23T22:57:04.480Z,6.68
2022-11-23T23:02:06.021Z,6.68
2022-11-23T23:07:07.694Z,6.78
2022-11-23T23:12:10.642Z,6.62
2022-11-23T23:17:12.192Z,6.72
2022-11-23T23:22:13.726Z,6.76
2022-11-23T23:27:16.665Z,6.66
2022-11-23T23:32:19.618Z,6.70
2022-11-23T23:37:22.093Z,6.68
2022-11-23T23:42:23.617Z,6.50
2022-11-23T23:47:25.881Z,6.73
2022-11-23T23:52:27.984Z,6.57
2022-11-23T23:57:30.968Z,6.67
